Acadiana Regional Airport
KARA : now visible

Airfield :











YOU CAN JOIN US ON...

 
LOGIN :

Register | Disclaimer

   EN    FR    IT 

 









Legend :    VFR   Marginal VFR   IFR   Intensive IFR   Very Intensive IFR
Visi :
Ceiling :
>= 8 km
>= 3000ft
5 to 8 km
1000 to 3000 ft
1500m to 5 km
500 to 1000 ft
800 to 1500m
200 to 500 ft
< 800m
< 200 ft
Symbols :   Thunderstorms  Fog  Heavy snow  Heavy precipitations  Wind > 20 kt






- Airport Elevation : 24 ft


KARA - Acadiana Regional

CURRENT METAR :
  • 010053Z 35009G18KT 10SM FEW038 16/11 A2997 RMK AO2 SLP147 T01610106

EXPIRED METARs :
  • 312353Z 36014KT 10SM FEW037 18/11 A2995 RMK AO2 PK WND 33026/2305 SLP141 T01780111 10239 20178 53018
  • 312253Z 34014KT 10SM FEW039 20/12 A2993 RMK AO2 PK WND 35026/2211 SLP133 T02000117

TAF KARA
Valid from the 01 at 00:00 until the 02 at 00:00 UTC


312335Z 0100/0124 35014G22KT P6SM SCT040
FM010300 01011KT P6SM SKC
FM011400 08007KT P6SM SKC
FM011800 VRB04KT P6SM FEW250



MET'MAP, your aeronautical weather chart ! - Copyright ORBIFLY December 2007 - Disclaimer

ORBIFLY MET'MAP TEAM :

Programming & Development : Alexandra Zaïnal
Concept & original design : Baudouin d'Aumeries
Assistance for programming : Marc-Olivier Méhu
Technical & hardware support : Manuel Goepfert

Contact : metmap@orbifly.com




SOURCES & CREDITS :

   NOAA       Earth
Advisory